AirNav   Everest Fuels
 
 1112 users online  

62AL Skywest Airpark
Mobile, Alabama, USA

GOING TO MOBILE?


FAA INFORMATION EFFECTIVE 15 JULY 2021

Location

FAA Identifier: 62AL
Lat/Long: 30-41-00.6880N 088-22-19.0400W
30-41.011467N 088-22.317333W
30.6835244,-88.3719556
(estimated)
Elevation: 150 ft. / 46 m (estimated)
Variation: 01E (1990)
From city: 18 miles W of MOBILE, AL
Time zone: UTC -5 (UTC -6 during Standard Time)
Zip code: 36608

Airport Operations

Airport use: Private use. Permission required prior to landing
Activation date: 05/1995
Control tower: no
ARTCC: HOUSTON CENTER
FSS: ANNISTON FLIGHT SERVICE STATION
Attendance: UNATNDD
Wind indicator: yes
Segmented circle: no

Airport Communications

WX ASOS at MOB (7 nm E): 124.75 (251-607-0469)
WX ASOS at PQL (16 nm SW): 135.175 (228-474-2836)
WX ASOS at BFM (16 nm E): PHONE 251-431-6762

Nearby radio navigation aids

VOR radial/distance  VOR name  Freq  Var
SJIr189/2.6SEMMES VORTAC115.3005E
BFMr281/16.9BROOKLEY VORTAC112.8004E
GCVr162/25.6GREENE COUNTY VORTAC115.7005E

 
NDB name  Hdg/Dist  Freq  Var  ID
WISLE218/5.824801WMOB -- --- -...

Airport Services

Runway Information

Runway 11/29

Dimensions: 2467 x 100 ft. / 752 x 30 m
Surface: turf, in good condition
Runway edge markings: 11/29 MKD WITH WHITE MARKERS SPACED 200 FT
RUNWAY 11  RUNWAY 29
Traffic pattern: leftleft
Obstructions: 29 ft. pole, 681 ft. from runway, 3 ft. left of centerline, 23:1 slope to clearnone

Airport Ownership and Management from official FAA records

Ownership: Privately-owned
Owner: ANTHONY & BARBARA WILLIAMS
13721 FRANK WILLIAMS RD
MOBILE, AL 36608
Phone 334-649-5033
Manager: ANTHONY & BARBARA WILLIAMS
13721 FRANK WILLIAMS RD
MOBILE, AL 36608
Phone 334-649-5033

Airport Operational Statistics

Aircraft based on the field: 7
Single engine airplanes: 7
    
Aircraft operations: avg 68/month *
59% transient general aviation
41% local general aviation
* for 12-month period ending 25 January 1999

Additional Remarks

FOR CD CTC MOBILE APCH AT 251-662-6236, WHEN APCH CLSD CTC HOUSTON ARTCC AT 281-230-5622.

Instrument Procedures

There are no published instrument procedures at 62AL.

Some nearby airports with instrument procedures:

KMOB - Mobile Regional Airport (7 nm E)
2R5 - St Elmo Airport (12 nm SE)
KPQL - Trent Lott International Airport (16 nm SW)
KBFM - Mobile Downtown Airport (16 nm E)
KCQF - H L Sonny Callahan Airport (29 nm SE)
 
Loc | Ops | Rwys | IFR | FBO | Links
Com | Nav | Svcs | Stats | Notes
Area around 62AL (Skywest Airpark)
 
Road maps at: MapQuest Bing Google
 
Aerial photo
No photo
 
Sectional chart

 
Airport distance calculator
Flying to Skywest Airpark? Find the distance to fly.

From to 62AL

Sunrise and sunset
Times for 01-Aug-2021
 Local
(UTC-5)
 Zulu
(UTC)
Morning civil twilight05:4610:46
Sunrise06:1211:12
Sunset19:4700:47
Evening civil twilight20:1301:13

Current date and time
Zulu (UTC)  01-Aug-2021 17:31:56
Local (UTC-5)  01-Aug-2021 12:31:56
 
METAR
KMOB 
6nm E 
011656Z 28006KT 7SM FEW032 SCT200 32/24 A3004 RMK AO2 SLP169 T03220244
KPQL 
15nm SW 
011653Z AUTO 30006KT 10SM FEW033 35/26 A3002 RMK AO2 SLP168 T03500256
KBFM 
16nm E 
011653Z VRB04KT 10SM FEW055 34/24 A3004 RMK AO2 SLP171 T03440244
TAF
KMOB 
6nm E 
011135Z 0112/0212 22004KT P6SM FEW035 SCT200 FM011700 29005KT P6SM SCT035 SCT200 FM012000 22009KT P6SM VCTS SCT050CB SCT080 BKN200 PROB30 0121/0203 4SM TSRA BKN050CB FM020500 VRB04KT P6SM VCTS SCT080CB SCT250
KBFM 
16nm E 
011135Z 0112/0212 00000KT P6SM SKC FM011700 17007KT P6SM FEW050 SCT200 FM012000 22009KT P6SM VCTS SCT060CB SCT080 BKN200 PROB30 0121/0203 4SM TSRA BKN060CB FM020600 VRB04KT P6SM VCTS SCT090CB SCT250
NOTAMs
Click for the latest NOTAMs
NOTAMs are issued by the DoD/FAA and will open in a separate window not controlled by AirNav.

 

 
 

Would you like to see your business listed on this page?

 If your business provides an interesting product or service to pilots, flight crews, aircraft, or users of the Skywest Airpark, you should consider listing it here.  To start the listing process, click on the button below
 
Add a business
 

Other Pages about Skywest Airpark

Update a link
 
Copyright © AirNav, LLC. All rights reserved. Privacy Policy  Contact